Terminal Aerodrome Forecast
Issued by NWS

Home | Current Version | Previous Version | Text Only | Print | Product List | Glossary Off
Versions: 1 2 3 4 5 6 7 8 9 10 11 12 13 14 15 16 17 18 19 20 21 22 23 24 25 26 27 28 29 30 31 32 33 34 35 36 37 38 39 40 41 42 43

000
FTUS43 KGRB 060437 AAA
TAFRHI
TAF AMD
KRHI 060437Z 0605/0624 21005KT 6SM -SN SCT025 OVC040
      TEMPO 0605/0608 4SM -SN BKN025
     FM060800 24004KT P6SM BKN025
     FM061600 24008KT P6SM BKN020 BKN200=

USA.gov is the U.S. government's official web portal to all federal, state and local government web resources and services.